sensor_id;sensor_type;location;lat;lon;timestamp;P1;durP1;ratioP1;P2;durP2;ratioP2
23146;SDS011;11742;53.532;-1.478;2024-03-08T00:01:30;8.40;;;4.75;;
23146;SDS011;11742;53.532;-1.478;2024-03-08T00:04:15;10.90;;;4.97;;
23146;SDS011;11742;53.532;-1.478;2024-03-08T00:06:59;10.90;;;4.97;;
23146;SDS011;11742;53.532;-1.478;2024-03-08T00:09:43;7.22;;;3.92;;
23146;SDS011;11742;53.532;-1.478;2024-03-08T00:12:28;7.32;;;4.07;;
23146;SDS011;11742;53.532;-1.478;2024-03-08T00:15:12;9.98;;;4.88;;
23146;SDS011;11742;53.532;-1.478;2024-03-08T00:18:00;6.65;;;4.05;;
23146;SDS011;11742;53.532;-1.478;2024-03-08T00:20:45;9.20;;;4.90;;
23146;SDS011;11742;53.532;-1.478;2024-03-08T00:23:29;10.85;;;5.93;;
23146;SDS011;11742;53.532;-1.478;2024-03-08T00:26:13;7.70;;;4.75;;
23146;SDS011;11742;53.532;-1.478;2024-03-08T00:28:58;11.05;;;4.80;;
23146;SDS011;11742;53.532;-1.478;2024-03-08T00:31:42;10.52;;;5.00;;
23146;SDS011;11742;53.532;-1.478;2024-03-08T00:34:26;9.10;;;4.75;;
23146;SDS011;11742;53.532;-1.478;2024-03-08T00:37:11;9.57;;;4.63;;
23146;SDS011;11742;53.532;-1.478;2024-03-08T00:39:55;11.55;;;5.88;;
23146;SDS011;11742;53.532;-1.478;2024-03-08T00:42:39;14.57;;;5.82;;
23146;SDS011;11742;53.532;-1.478;2024-03-08T00:45:24;12.98;;;5.75;;
23146;SDS011;11742;53.532;-1.478;2024-03-08T00:48:09;10.20;;;5.97;;
23146;SDS011;11742;53.532;-1.478;2024-03-08T00:50:54;11.57;;;6.47;;
23146;SDS011;11742;53.532;-1.478;2024-03-08T00:53:38;12.00;;;5.78;;
23146;SDS011;11742;53.532;-1.478;2024-03-08T00:56:22;9.98;;;5.88;;
23146;SDS011;11742;53.532;-1.478;2024-03-08T00:59:08;12.43;;;6.57;;
23146;SDS011;11742;53.532;-1.478;2024-03-08T01:01:53;11.82;;;6.40;;
23146;SDS011;11742;53.532;-1.478;2024-03-08T01:04:37;12.05;;;5.78;;
23146;SDS011;11742;53.532;-1.478;2024-03-08T01:07:22;10.45;;;5.53;;
23146;SDS011;11742;53.532;-1.478;2024-03-08T01:10:07;9.63;;;5.78;;
23146;SDS011;11742;53.532;-1.478;2024-03-08T01:12:53;10.35;;;5.88;;
23146;SDS011;11742;53.532;-1.478;2024-03-08T01:15:40;10.07;;;5.72;;
23146;SDS011;11742;53.532;-1.478;2024-03-08T01:18:25;11.48;;;6.38;;
23146;SDS011;11742;53.532;-1.478;2024-03-08T01:21:09;8.68;;;4.80;;
23146;SDS011;11742;53.532;-1.478;2024-03-08T01:23:54;11.88;;;5.78;;
23146;SDS011;11742;53.532;-1.478;2024-03-08T01:26:38;13.02;;;5.65;;
23146;SDS011;11742;53.532;-1.478;2024-03-08T01:29:22;11.40;;;6.07;;
23146;SDS011;11742;53.532;-1.478;2024-03-08T01:32:07;12.57;;;6.47;;
23146;SDS011;11742;53.532;-1.478;2024-03-08T01:34:52;12.90;;;6.50;;
23146;SDS011;11742;53.532;-1.478;2024-03-08T01:37:36;11.65;;;5.85;;
23146;SDS011;11742;53.532;-1.478;2024-03-08T01:40:21;12.85;;;6.45;;
23146;SDS011;11742;53.532;-1.478;2024-03-08T01:43:22;12.13;;;5.75;;
23146;SDS011;11742;53.532;-1.478;2024-03-08T01:46:17;12.25;;;5.93;;
23146;SDS011;11742;53.532;-1.478;2024-03-08T01:49:05;11.50;;;6.03;;
23146;SDS011;11742;53.532;-1.478;2024-03-08T01:51:49;12.25;;;5.60;;
23146;SDS011;11742;53.532;-1.478;2024-03-08T01:54:34;11.57;;;5.45;;
23146;SDS011;11742;53.532;-1.478;2024-03-08T01:57:20;12.20;;;6.43;;
23146;SDS011;11742;53.532;-1.478;2024-03-08T02:00:04;13.02;;;5.85;;
23146;SDS011;11742;53.532;-1.478;2024-03-08T02:02:50;11.55;;;6.10;;
23146;SDS011;11742;53.532;-1.478;2024-03-08T02:05:38;12.98;;;6.80;;
23146;SDS011;11742;53.532;-1.478;2024-03-08T02:08:24;11.18;;;6.38;;
23146;SDS011;11742;53.532;-1.478;2024-03-08T02:11:09;14.40;;;6.68;;
23146;SDS011;11742;53.532;-1.478;2024-03-08T02:13:53;10.02;;;5.50;;
23146;SDS011;11742;53.532;-1.478;2024-03-08T02:16:38;10.18;;;6.15;;
23146;SDS011;11742;53.532;-1.478;2024-03-08T02:19:23;14.02;;;6.47;;
23146;SDS011;11742;53.532;-1.478;2024-03-08T02:22:07;15.02;;;7.50;;
23146;SDS011;11742;53.532;-1.478;2024-03-08T02:24:51;11.73;;;6.72;;
23146;SDS011;11742;53.532;-1.478;2024-03-08T02:27:35;11.07;;;6.63;;
23146;SDS011;11742;53.532;-1.478;2024-03-08T02:30:20;11.93;;;6.22;;
23146;SDS011;11742;53.532;-1.478;2024-03-08T02:33:05;10.35;;;5.50;;
23146;SDS011;11742;53.532;-1.478;2024-03-08T02:35:52;13.35;;;5.80;;
23146;SDS011;11742;53.532;-1.478;2024-03-08T02:38:36;13.45;;;6.50;;
23146;SDS011;11742;53.532;-1.478;2024-03-08T02:41:21;12.40;;;6.32;;
23146;SDS011;11742;53.532;-1.478;2024-03-08T02:44:06;13.32;;;6.70;;
23146;SDS011;11742;53.532;-1.478;2024-03-08T02:46:51;11.93;;;5.72;;
23146;SDS011;11742;53.532;-1.478;2024-03-08T02:49:38;15.85;;;6.63;;
23146;SDS011;11742;53.532;-1.478;2024-03-08T02:52:23;10.70;;;5.53;;
23146;SDS011;11742;53.532;-1.478;2024-03-08T02:55:07;10.18;;;5.53;;
23146;SDS011;11742;53.532;-1.478;2024-03-08T02:57:54;12.50;;;5.70;;
23146;SDS011;11742;53.532;-1.478;2024-03-08T03:00:38;9.35;;;5.50;;
23146;SDS011;11742;53.532;-1.478;2024-03-08T03:03:23;8.80;;;5.40;;
23146;SDS011;11742;53.532;-1.478;2024-03-08T03:06:07;16.25;;;6.72;;
23146;SDS011;11742;53.532;-1.478;2024-03-08T03:08:51;11.55;;;6.15;;
23146;SDS011;11742;53.532;-1.478;2024-03-08T03:11:35;11.27;;;5.53;;
23146;SDS011;11742;53.532;-1.478;2024-03-08T03:14:20;12.52;;;6.32;;
23146;SDS011;11742;53.532;-1.478;2024-03-08T03:17:05;15.20;;;6.35;;
23146;SDS011;11742;53.532;-1.478;2024-03-08T03:19:49;11.88;;;6.70;;
23146;SDS011;11742;53.532;-1.478;2024-03-08T03:22:33;15.57;;;6.55;;
23146;SDS011;11742;53.532;-1.478;2024-03-08T03:25:19;10.73;;;6.22;;
23146;SDS011;11742;53.532;-1.478;2024-03-08T03:28:12;13.15;;;5.72;;
23146;SDS011;11742;53.532;-1.478;2024-03-08T03:31:01;14.50;;;6.50;;
23146;SDS011;11742;53.532;-1.478;2024-03-08T03:33:45;13.07;;;6.82;;
23146;SDS011;11742;53.532;-1.478;2024-03-08T03:36:30;12.82;;;6.05;;
23146;SDS011;11742;53.532;-1.478;2024-03-08T03:39:14;16.05;;;6.93;;
23146;SDS011;11742;53.532;-1.478;2024-03-08T03:42:03;13.15;;;6.60;;
23146;SDS011;11742;53.532;-1.478;2024-03-08T03:44:48;15.48;;;6.82;;
23146;SDS011;11742;53.532;-1.478;2024-03-08T03:47:32;14.55;;;6.70;;
23146;SDS011;11742;53.532;-1.478;2024-03-08T03:50:16;13.02;;;5.93;;
23146;SDS011;11742;53.532;-1.478;2024-03-08T03:53:03;16.15;;;7.20;;
23146;SDS011;11742;53.532;-1.478;2024-03-08T03:55:48;11.00;;;6.43;;
23146;SDS011;11742;53.532;-1.478;2024-03-08T03:58:32;14.05;;;7.38;;
23146;SDS011;11742;53.532;-1.478;2024-03-08T04:01:17;15.38;;;7.03;;
23146;SDS011;11742;53.532;-1.478;2024-03-08T04:04:01;15.75;;;7.18;;
23146;SDS011;11742;53.532;-1.478;2024-03-08T04:06:45;17.90;;;6.72;;
23146;SDS011;11742;53.532;-1.478;2024-03-08T04:09:30;15.93;;;7.05;;
23146;SDS011;11742;53.532;-1.478;2024-03-08T04:12:14;15.02;;;7.18;;
23146;SDS011;11742;53.532;-1.478;2024-03-08T04:14:59;14.38;;;6.82;;
23146;SDS011;11742;53.532;-1.478;2024-03-08T04:17:44;14.63;;;7.35;;
23146;SDS011;11742;53.532;-1.478;2024-03-08T04:20:29;15.77;;;6.68;;
23146;SDS011;11742;53.532;-1.478;2024-03-08T04:23:15;16.10;;;7.45;;
23146;SDS011;11742;53.532;-1.478;2024-03-08T04:26:00;16.25;;;7.85;;
23146;SDS011;11742;53.532;-1.478;2024-03-08T04:28:44;17.85;;;8.55;;
23146;SDS011;11742;53.532;-1.478;2024-03-08T04:31:29;18.25;;;8.52;;
23146;SDS011;11742;53.532;-1.478;2024-03-08T04:34:14;16.45;;;7.38;;
23146;SDS011;11742;53.532;-1.478;2024-03-08T04:36:58;16.80;;;7.10;;
23146;SDS011;11742;53.532;-1.478;2024-03-08T04:39:43;17.60;;;7.47;;
23146;SDS011;11742;53.532;-1.478;2024-03-08T04:42:27;24.70;;;8.05;;
23146;SDS011;11742;53.532;-1.478;2024-03-08T04:45:13;16.85;;;6.90;;
23146;SDS011;11742;53.532;-1.478;2024-03-08T04:47:58;14.45;;;7.18;;
23146;SDS011;11742;53.532;-1.478;2024-03-08T04:50:42;13.90;;;7.13;;
23146;SDS011;11742;53.532;-1.478;2024-03-08T04:53:26;14.38;;;7.20;;
23146;SDS011;11742;53.532;-1.478;2024-03-08T04:56:10;15.57;;;7.38;;
23146;SDS011;11742;53.532;-1.478;2024-03-08T04:58:55;14.85;;;6.90;;
23146;SDS011;11742;53.532;-1.478;2024-03-08T05:01:40;16.20;;;7.55;;
23146;SDS011;11742;53.532;-1.478;2024-03-08T05:04:24;14.48;;;6.97;;
23146;SDS011;11742;53.532;-1.478;2024-03-08T05:07:08;16.20;;;7.80;;
23146;SDS011;11742;53.532;-1.478;2024-03-08T05:09:52;16.52;;;7.07;;
23146;SDS011;11742;53.532;-1.478;2024-03-08T05:12:36;19.33;;;8.48;;
23146;SDS011;11742;53.532;-1.478;2024-03-08T05:15:22;15.57;;;7.35;;
23146;SDS011;11742;53.532;-1.478;2024-03-08T05:18:06;22.65;;;9.68;;
23146;SDS011;11742;53.532;-1.478;2024-03-08T05:20:51;13.93;;;6.78;;
23146;SDS011;11742;53.532;-1.478;2024-03-08T05:23:35;13.95;;;6.78;;
23146;SDS011;11742;53.532;-1.478;2024-03-08T05:26:20;17.73;;;7.55;;
23146;SDS011;11742;53.532;-1.478;2024-03-08T05:29:06;15.98;;;7.45;;
23146;SDS011;11742;53.532;-1.478;2024-03-08T05:31:50;13.75;;;6.78;;
23146;SDS011;11742;53.532;-1.478;2024-03-08T05:34:38;16.17;;;7.43;;
23146;SDS011;11742;53.532;-1.478;2024-03-08T05:37:22;16.63;;;7.80;;
23146;SDS011;11742;53.532;-1.478;2024-03-08T05:40:07;14.27;;;6.82;;
23146;SDS011;11742;53.532;-1.478;2024-03-08T05:42:55;15.10;;;6.78;;
23146;SDS011;11742;53.532;-1.478;2024-03-08T05:45:39;16.92;;;6.93;;
23146;SDS011;11742;53.532;-1.478;2024-03-08T05:48:23;14.05;;;6.93;;
23146;SDS011;11742;53.532;-1.478;2024-03-08T05:51:08;19.15;;;7.88;;
23146;SDS011;11742;53.532;-1.478;2024-03-08T05:53:53;16.45;;;7.72;;
23146;SDS011;11742;53.532;-1.478;2024-03-08T05:56:40;18.02;;;7.72;;
23146;SDS011;11742;53.532;-1.478;2024-03-08T05:59:26;13.07;;;6.97;;
23146;SDS011;11742;53.532;-1.478;2024-03-08T06:02:11;15.02;;;7.70;;
23146;SDS011;11742;53.532;-1.478;2024-03-08T06:04:55;14.07;;;7.55;;
23146;SDS011;11742;53.532;-1.478;2024-03-08T06:07:40;15.57;;;7.40;;
23146;SDS011;11742;53.532;-1.478;2024-03-08T06:10:24;18.10;;;7.63;;
23146;SDS011;11742;53.532;-1.478;2024-03-08T06:13:08;14.25;;;7.72;;
23146;SDS011;11742;53.532;-1.478;2024-03-08T06:15:55;14.50;;;6.97;;
23146;SDS011;11742;53.532;-1.478;2024-03-08T06:18:39;13.48;;;7.22;;
23146;SDS011;11742;53.532;-1.478;2024-03-08T06:21:24;14.02;;;6.78;;
23146;SDS011;11742;53.532;-1.478;2024-03-08T06:24:11;15.65;;;7.43;;
23146;SDS011;11742;53.532;-1.478;2024-03-08T06:26:56;16.15;;;8.40;;
23146;SDS011;11742;53.532;-1.478;2024-03-08T06:29:41;15.40;;;7.03;;
23146;SDS011;11742;53.532;-1.478;2024-03-08T06:32:25;16.42;;;7.28;;
23146;SDS011;11742;53.532;-1.478;2024-03-08T06:35:09;15.32;;;7.03;;
23146;SDS011;11742;53.532;-1.478;2024-03-08T06:37:54;15.10;;;7.30;;
23146;SDS011;11742;53.532;-1.478;2024-03-08T06:40:38;18.55;;;7.70;;
23146;SDS011;11742;53.532;-1.478;2024-03-08T06:43:23;12.48;;;6.63;;
23146;SDS011;11742;53.532;-1.478;2024-03-08T06:46:16;16.23;;;8.15;;
23146;SDS011;11742;53.532;-1.478;2024-03-08T06:49:01;15.98;;;8.25;;
23146;SDS011;11742;53.532;-1.478;2024-03-08T06:51:47;13.55;;;7.28;;
23146;SDS011;11742;53.532;-1.478;2024-03-08T06:54:31;16.90;;;7.90;;
23146;SDS011;11742;53.532;-1.478;2024-03-08T06:57:15;13.48;;;7.13;;
23146;SDS011;11742;53.532;-1.478;2024-03-08T07:00:00;15.80;;;7.38;;
23146;SDS011;11742;53.532;-1.478;2024-03-08T07:02:45;13.63;;;7.78;;
23146;SDS011;11742;53.532;-1.478;2024-03-08T07:05:30;13.38;;;7.70;;
23146;SDS011;11742;53.532;-1.478;2024-03-08T07:08:14;14.07;;;7.25;;
23146;SDS011;11742;53.532;-1.478;2024-03-08T07:10:59;16.92;;;7.93;;
23146;SDS011;11742;53.532;-1.478;2024-03-08T07:13:43;20.65;;;7.95;;
23146;SDS011;11742;53.532;-1.478;2024-03-08T07:16:30;17.42;;;8.02;;
23146;SDS011;11742;53.532;-1.478;2024-03-08T07:19:14;17.98;;;8.00;;
23146;SDS011;11742;53.532;-1.478;2024-03-08T07:21:59;17.10;;;8.13;;
23146;SDS011;11742;53.532;-1.478;2024-03-08T07:24:43;19.35;;;9.23;;
23146;SDS011;11742;53.532;-1.478;2024-03-08T07:27:55;24.60;;;9.30;;
23146;SDS011;11742;53.532;-1.478;2024-03-08T07:30:39;20.50;;;9.20;;
23146;SDS011;11742;53.532;-1.478;2024-03-08T07:33:26;19.48;;;9.77;;
23146;SDS011;11742;53.532;-1.478;2024-03-08T07:36:11;18.20;;;9.10;;
23146;SDS011;11742;53.532;-1.478;2024-03-08T07:38:55;19.88;;;9.65;;
23146;SDS011;11742;53.532;-1.478;2024-03-08T07:41:40;22.33;;;9.70;;
23146;SDS011;11742;53.532;-1.478;2024-03-08T07:44:24;25.45;;;9.73;;
23146;SDS011;11742;53.532;-1.478;2024-03-08T07:47:08;21.00;;;9.93;;
23146;SDS011;11742;53.532;-1.478;2024-03-08T07:49:53;17.90;;;9.70;;
23146;SDS011;11742;53.532;-1.478;2024-03-08T07:52:38;19.67;;;10.23;;
23146;SDS011;11742;53.532;-1.478;2024-03-08T07:55:22;22.60;;;10.50;;
23146;SDS011;11742;53.532;-1.478;2024-03-08T07:58:07;20.38;;;10.32;;
23146;SDS011;11742;53.532;-1.478;2024-03-08T08:00:54;18.48;;;9.63;;
23146;SDS011;11742;53.532;-1.478;2024-03-08T08:03:38;26.13;;;11.32;;
23146;SDS011;11742;53.532;-1.478;2024-03-08T08:06:26;24.50;;;10.63;;
23146;SDS011;11742;53.532;-1.478;2024-03-08T08:09:10;21.73;;;10.35;;
23146;SDS011;11742;53.532;-1.478;2024-03-08T08:11:58;24.27;;;10.10;;
23146;SDS011;11742;53.532;-1.478;2024-03-08T08:14:42;24.08;;;10.48;;
23146;SDS011;11742;53.532;-1.478;2024-03-08T08:17:26;22.20;;;10.80;;
23146;SDS011;11742;53.532;-1.478;2024-03-08T08:20:11;22.63;;;11.38;;
23146;SDS011;11742;53.532;-1.478;2024-03-08T08:22:56;23.85;;;10.90;;
23146;SDS011;11742;53.532;-1.478;2024-03-08T08:25:42;20.70;;;10.48;;
23146;SDS011;11742;53.532;-1.478;2024-03-08T08:28:26;24.85;;;10.90;;
23146;SDS011;11742;53.532;-1.478;2024-03-08T08:31:10;21.70;;;10.43;;
23146;SDS011;11742;53.532;-1.478;2024-03-08T08:33:54;23.13;;;10.55;;
23146;SDS011;11742;53.532;-1.478;2024-03-08T08:36:41;20.88;;;9.80;;
23146;SDS011;11742;53.532;-1.478;2024-03-08T08:39:25;19.08;;;9.63;;
23146;SDS011;11742;53.532;-1.478;2024-03-08T08:42:09;20.77;;;10.25;;
23146;SDS011;11742;53.532;-1.478;2024-03-08T08:44:54;20.85;;;10.25;;
23146;SDS011;11742;53.532;-1.478;2024-03-08T08:47:41;23.20;;;11.35;;
23146;SDS011;11742;53.532;-1.478;2024-03-08T08:50:26;22.20;;;10.60;;
23146;SDS011;11742;53.532;-1.478;2024-03-08T08:53:11;20.02;;;9.35;;
23146;SDS011;11742;53.532;-1.478;2024-03-08T08:55:58;22.60;;;11.27;;
23146;SDS011;11742;53.532;-1.478;2024-03-08T08:58:42;22.02;;;10.10;;
23146;SDS011;11742;53.532;-1.478;2024-03-08T09:01:26;18.90;;;10.27;;
23146;SDS011;11742;53.532;-1.478;2024-03-08T09:04:13;22.02;;;10.77;;
23146;SDS011;11742;53.532;-1.478;2024-03-08T09:06:57;22.92;;;10.63;;
23146;SDS011;11742;53.532;-1.478;2024-03-08T09:09:42;21.40;;;10.88;;
23146;SDS011;11742;53.532;-1.478;2024-03-08T09:12:26;21.98;;;10.07;;
23146;SDS011;11742;53.532;-1.478;2024-03-08T09:15:11;22.13;;;10.23;;
23146;SDS011;11742;53.532;-1.478;2024-03-08T09:17:55;25.00;;;11.23;;
23146;SDS011;11742;53.532;-1.478;2024-03-08T09:20:39;24.33;;;11.00;;
23146;SDS011;11742;53.532;-1.478;2024-03-08T09:23:25;24.63;;;10.20;;
23146;SDS011;11742;53.532;-1.478;2024-03-08T09:26:13;24.52;;;10.27;;
23146;SDS011;11742;53.532;-1.478;2024-03-08T09:28:59;22.02;;;10.70;;
23146;SDS011;11742;53.532;-1.478;2024-03-08T09:31:43;26.25;;;10.93;;
23146;SDS011;11742;53.532;-1.478;2024-03-08T09:34:29;24.33;;;9.55;;
23146;SDS011;11742;53.532;-1.478;2024-03-08T09:37:13;21.23;;;10.65;;
23146;SDS011;11742;53.532;-1.478;2024-03-08T09:39:58;20.20;;;10.10;;
23146;SDS011;11742;53.532;-1.478;2024-03-08T09:42:43;20.48;;;10.95;;
23146;SDS011;11742;53.532;-1.478;2024-03-08T09:45:28;20.25;;;10.25;;
23146;SDS011;11742;53.532;-1.478;2024-03-08T09:48:15;21.35;;;9.82;;
23146;SDS011;11742;53.532;-1.478;2024-03-08T09:51:03;24.10;;;9.80;;
23146;SDS011;11742;53.532;-1.478;2024-03-08T09:53:48;25.23;;;11.07;;
23146;SDS011;11742;53.532;-1.478;2024-03-08T09:56:35;21.38;;;10.20;;
23146;SDS011;11742;53.532;-1.478;2024-03-08T09:59:20;23.70;;;10.88;;
23146;SDS011;11742;53.532;-1.478;2024-03-08T10:02:13;20.05;;;9.80;;
23146;SDS011;11742;53.532;-1.478;2024-03-08T10:04:58;22.95;;;10.38;;
23146;SDS011;11742;53.532;-1.478;2024-03-08T10:07:43;20.42;;;9.93;;
23146;SDS011;11742;53.532;-1.478;2024-03-08T10:10:28;16.75;;;8.57;;
23146;SDS011;11742;53.532;-1.478;2024-03-08T10:13:12;20.77;;;9.35;;
23146;SDS011;11742;53.532;-1.478;2024-03-08T10:15:57;20.30;;;10.02;;
23146;SDS011;11742;53.532;-1.478;2024-03-08T10:18:42;19.95;;;9.93;;
23146;SDS011;11742;53.532;-1.478;2024-03-08T10:21:26;23.48;;;10.68;;
23146;SDS011;11742;53.532;-1.478;2024-03-08T10:24:11;20.55;;;10.32;;
23146;SDS011;11742;53.532;-1.478;2024-03-08T10:27:00;19.27;;;10.95;;
23146;SDS011;11742;53.532;-1.478;2024-03-08T10:29:48;20.73;;;10.05;;
23146;SDS011;11742;53.532;-1.478;2024-03-08T10:32:34;18.00;;;8.73;;
23146;SDS011;11742;53.532;-1.478;2024-03-08T10:35:18;19.10;;;9.25;;
23146;SDS011;11742;53.532;-1.478;2024-03-08T10:38:04;21.15;;;10.25;;
23146;SDS011;11742;53.532;-1.478;2024-03-08T10:40:51;20.02;;;9.65;;
23146;SDS011;11742;53.532;-1.478;2024-03-08T10:50:18;18.63;;;10.13;;
23146;SDS011;11742;53.532;-1.478;2024-03-08T10:53:06;22.42;;;9.75;;
23146;SDS011;11742;53.532;-1.478;2024-03-08T10:55:55;20.33;;;9.05;;
23146;SDS011;11742;53.532;-1.478;2024-03-08T10:58:41;17.15;;;8.90;;
23146;SDS011;11742;53.532;-1.478;2024-03-08T11:01:27;21.77;;;10.25;;
23146;SDS011;11742;53.532;-1.478;2024-03-08T11:04:13;16.98;;;8.75;;
23146;SDS011;11742;53.532;-1.478;2024-03-08T11:07:01;18.75;;;8.98;;
23146;SDS011;11742;53.532;-1.478;2024-03-08T11:09:49;19.25;;;9.32;;
23146;SDS011;11742;53.532;-1.478;2024-03-08T11:12:36;22.50;;;11.18;;
23146;SDS011;11742;53.532;-1.478;2024-03-08T11:15:21;19.85;;;10.05;;
23146;SDS011;11742;53.532;-1.478;2024-03-08T11:18:08;22.65;;;11.65;;
23146;SDS011;11742;53.532;-1.478;2024-03-08T11:20:54;19.25;;;9.65;;
23146;SDS011;11742;53.532;-1.478;2024-03-08T11:23:39;20.30;;;9.55;;
23146;SDS011;11742;53.532;-1.478;2024-03-08T11:26:27;21.10;;;9.93;;
23146;SDS011;11742;53.532;-1.478;2024-03-08T11:32:12;17.85;;;8.98;;
23146;SDS011;11742;53.532;-1.478;2024-03-08T11:35:00;23.70;;;10.52;;
23146;SDS011;11742;53.532;-1.478;2024-03-08T11:37:49;15.30;;;8.95;;
23146;SDS011;11742;53.532;-1.478;2024-03-08T11:40:34;18.88;;;8.82;;
23146;SDS011;11742;53.532;-1.478;2024-03-08T11:43:19;20.52;;;9.38;;
23146;SDS011;11742;53.532;-1.478;2024-03-08T11:46:10;17.77;;;8.48;;
23146;SDS011;11742;53.532;-1.478;2024-03-08T11:48:59;16.60;;;8.85;;
23146;SDS011;11742;53.532;-1.478;2024-03-08T11:51:44;16.10;;;8.32;;
23146;SDS011;11742;53.532;-1.478;2024-03-08T11:54:28;16.80;;;9.15;;
23146;SDS011;11742;53.532;-1.478;2024-03-08T11:57:17;16.02;;;8.25;;
23146;SDS011;11742;53.532;-1.478;2024-03-08T12:00:02;15.85;;;8.65;;
23146;SDS011;11742;53.532;-1.478;2024-03-08T12:03:03;15.60;;;9.65;;
23146;SDS011;11742;53.532;-1.478;2024-03-08T12:05:57;19.95;;;9.27;;
23146;SDS011;11742;53.532;-1.478;2024-03-08T12:08:43;18.08;;;8.80;;
23146;SDS011;11742;53.532;-1.478;2024-03-08T12:11:30;18.45;;;9.27;;
23146;SDS011;11742;53.532;-1.478;2024-03-08T12:14:15;14.82;;;8.57;;
23146;SDS011;11742;53.532;-1.478;2024-03-08T12:16:59;20.88;;;9.48;;
23146;SDS011;11742;53.532;-1.478;2024-03-08T12:19:47;15.57;;;8.68;;
23146;SDS011;11742;53.532;-1.478;2024-03-08T12:22:32;16.65;;;8.70;;
23146;SDS011;11742;53.532;-1.478;2024-03-08T12:25:16;13.20;;;8.00;;
23146;SDS011;11742;53.532;-1.478;2024-03-08T12:28:07;14.88;;;8.55;;
23146;SDS011;11742;53.532;-1.478;2024-03-08T12:30:59;14.90;;;8.40;;
23146;SDS011;11742;53.532;-1.478;2024-03-08T12:33:51;14.25;;;8.00;;
23146;SDS011;11742;53.532;-1.478;2024-03-08T12:36:35;19.70;;;9.02;;
23146;SDS011;11742;53.532;-1.478;2024-03-08T12:39:20;14.95;;;9.18;;
23146;SDS011;11742;53.532;-1.478;2024-03-08T12:42:11;16.02;;;9.23;;
23146;SDS011;11742;53.532;-1.478;2024-03-08T12:44:55;25.85;;;13.40;;
23146;SDS011;11742;53.532;-1.478;2024-03-08T12:47:39;33.70;;;14.00;;
23146;SDS011;11742;53.532;-1.478;2024-03-08T12:50:25;28.05;;;12.13;;
23146;SDS011;11742;53.532;-1.478;2024-03-08T12:53:09;26.58;;;12.02;;
23146;SDS011;11742;53.532;-1.478;2024-03-08T12:55:53;23.42;;;11.20;;
23146;SDS011;11742;53.532;-1.478;2024-03-08T12:58:40;24.65;;;11.13;;
23146;SDS011;11742;53.532;-1.478;2024-03-08T13:01:24;27.73;;;9.73;;
23146;SDS011;11742;53.532;-1.478;2024-03-08T13:04:09;18.63;;;8.85;;
23146;SDS011;11742;53.532;-1.478;2024-03-08T13:06:54;19.73;;;10.45;;
23146;SDS011;11742;53.532;-1.478;2024-03-08T13:09:39;21.05;;;9.00;;
23146;SDS011;11742;53.532;-1.478;2024-03-08T13:12:23;17.23;;;9.10;;
23146;SDS011;11742;53.532;-1.478;2024-03-08T13:15:08;18.88;;;10.55;;
23146;SDS011;11742;53.532;-1.478;2024-03-08T13:17:55;21.80;;;10.07;;
23146;SDS011;11742;53.532;-1.478;2024-03-08T13:20:41;18.55;;;9.80;;
23146;SDS011;11742;53.532;-1.478;2024-03-08T13:23:27;17.15;;;9.15;;
23146;SDS011;11742;53.532;-1.478;2024-03-08T13:26:12;18.33;;;9.32;;
23146;SDS011;11742;53.532;-1.478;2024-03-08T13:28:59;19.92;;;9.85;;
23146;SDS011;11742;53.532;-1.478;2024-03-08T13:31:44;22.30;;;9.18;;
23146;SDS011;11742;53.532;-1.478;2024-03-08T13:34:28;19.23;;;9.27;;
23146;SDS011;11742;53.532;-1.478;2024-03-08T13:37:13;16.40;;;9.18;;
23146;SDS011;11742;53.532;-1.478;2024-03-08T13:39:59;18.13;;;9.27;;
23146;SDS011;11742;53.532;-1.478;2024-03-08T13:42:43;17.38;;;9.20;;
23146;SDS011;11742;53.532;-1.478;2024-03-08T13:45:28;15.35;;;8.57;;
23146;SDS011;11742;53.532;-1.478;2024-03-08T13:48:12;19.80;;;8.27;;
23146;SDS011;11742;53.532;-1.478;2024-03-08T13:50:56;19.23;;;9.80;;
23146;SDS011;11742;53.532;-1.478;2024-03-08T13:53:41;14.65;;;8.68;;
23146;SDS011;11742;53.532;-1.478;2024-03-08T13:56:25;18.00;;;9.35;;
23146;SDS011;11742;53.532;-1.478;2024-03-08T13:59:10;14.32;;;8.27;;
23146;SDS011;11742;53.532;-1.478;2024-03-08T14:01:54;14.70;;;8.77;;
23146;SDS011;11742;53.532;-1.478;2024-03-08T14:04:41;15.82;;;9.35;;
23146;SDS011;11742;53.532;-1.478;2024-03-08T14:07:25;18.85;;;9.43;;
23146;SDS011;11742;53.532;-1.478;2024-03-08T14:10:09;20.20;;;9.13;;
23146;SDS011;11742;53.532;-1.478;2024-03-08T14:12:53;17.42;;;9.23;;
23146;SDS011;11742;53.532;-1.478;2024-03-08T14:15:38;15.93;;;8.50;;
23146;SDS011;11742;53.532;-1.478;2024-03-08T14:18:25;15.10;;;8.65;;
23146;SDS011;11742;53.532;-1.478;2024-03-08T14:21:09;18.02;;;9.38;;
23146;SDS011;11742;53.532;-1.478;2024-03-08T14:23:54;13.23;;;7.35;;
23146;SDS011;11742;53.532;-1.478;2024-03-08T14:26:38;15.20;;;8.50;;
23146;SDS011;11742;53.532;-1.478;2024-03-08T14:29:22;14.05;;;8.52;;
23146;SDS011;11742;53.532;-1.478;2024-03-08T14:32:07;20.17;;;9.00;;
23146;SDS011;11742;53.532;-1.478;2024-03-08T14:34:52;17.23;;;8.85;;
23146;SDS011;11742;53.532;-1.478;2024-03-08T14:37:36;14.80;;;8.27;;
23146;SDS011;11742;53.532;-1.478;2024-03-08T14:40:20;18.40;;;9.80;;
23146;SDS011;11742;53.532;-1.478;2024-03-08T14:43:06;17.90;;;9.52;;
23146;SDS011;11742;53.532;-1.478;2024-03-08T14:45:50;15.82;;;9.00;;
23146;SDS011;11742;53.532;-1.478;2024-03-08T14:48:34;14.85;;;7.70;;
23146;SDS011;11742;53.532;-1.478;2024-03-08T14:51:21;14.15;;;7.72;;
23146;SDS011;11742;53.532;-1.478;2024-03-08T14:54:09;18.50;;;8.60;;
23146;SDS011;11742;53.532;-1.478;2024-03-08T14:56:54;15.45;;;8.93;;
23146;SDS011;11742;53.532;-1.478;2024-03-08T14:59:40;18.30;;;10.27;;
23146;SDS011;11742;53.532;-1.478;2024-03-08T15:02:26;20.48;;;9.73;;
23146;SDS011;11742;53.532;-1.478;2024-03-08T15:05:11;17.38;;;9.02;;
23146;SDS011;11742;53.532;-1.478;2024-03-08T15:07:55;21.02;;;9.88;;
23146;SDS011;11742;53.532;-1.478;2024-03-08T15:10:39;18.95;;;9.13;;
23146;SDS011;11742;53.532;-1.478;2024-03-08T15:13:28;16.10;;;9.05;;
23146;SDS011;11742;53.532;-1.478;2024-03-08T15:16:22;16.60;;;8.98;;
23146;SDS011;11742;53.532;-1.478;2024-03-08T15:19:07;17.90;;;8.93;;
23146;SDS011;11742;53.532;-1.478;2024-03-08T15:21:52;18.60;;;9.48;;
23146;SDS011;11742;53.532;-1.478;2024-03-08T15:24:40;17.27;;;9.30;;
23146;SDS011;11742;53.532;-1.478;2024-03-08T15:27:26;15.98;;;8.80;;
23146;SDS011;11742;53.532;-1.478;2024-03-08T15:30:12;21.55;;;9.82;;
23146;SDS011;11742;53.532;-1.478;2024-03-08T15:33:00;15.95;;;9.23;;
23146;SDS011;11742;53.532;-1.478;2024-03-08T15:35:47;18.70;;;9.60;;
23146;SDS011;11742;53.532;-1.478;2024-03-08T15:38:34;21.33;;;9.68;;
23146;SDS011;11742;53.532;-1.478;2024-03-08T15:41:18;18.52;;;9.38;;
23146;SDS011;11742;53.532;-1.478;2024-03-08T15:44:04;21.38;;;9.32;;
23146;SDS011;11742;53.532;-1.478;2024-03-08T15:46:48;16.48;;;8.07;;
23146;SDS011;11742;53.532;-1.478;2024-03-08T15:49:33;13.50;;;7.53;;
23146;SDS011;11742;53.532;-1.478;2024-03-08T15:52:17;19.48;;;9.05;;
23146;SDS011;11742;53.532;-1.478;2024-03-08T15:55:02;18.05;;;9.75;;
23146;SDS011;11742;53.532;-1.478;2024-03-08T15:57:49;19.83;;;9.02;;
23146;SDS011;11742;53.532;-1.478;2024-03-08T16:00:34;18.33;;;9.25;;
23146;SDS011;11742;53.532;-1.478;2024-03-08T16:03:20;18.08;;;9.60;;
23146;SDS011;11742;53.532;-1.478;2024-03-08T16:06:04;18.30;;;9.05;;
23146;SDS011;11742;53.532;-1.478;2024-03-08T16:08:50;17.60;;;10.18;;
23146;SDS011;11742;53.532;-1.478;2024-03-08T16:11:34;20.95;;;9.40;;
23146;SDS011;11742;53.532;-1.478;2024-03-08T16:14:21;21.58;;;11.55;;